Schall — DNBQ — position and weather

sailwx.info

Track history (hours):
 
Tides and Currents Weather Stations Pressure Air Temp Water Temp Dewpoint Dewpoint Depression Visibility Wind Speed Wind Dir Waves Ship Positions

Oceanographic research ship Schall (Germany)

Detailed information on ship capabilities available from University of Delaware's Ocean Information Center.

Last reported at 2017-Sep-21 06:51 UTC. Time now 2017-Sep-24 07:00 UTC.
Position N 54°21' E 009°47'.

Length 50 m; draft 2 m.

Type: Ship. MMSI: 211236290.

Date/timePositionNaut miles runAvg speedWind from/ knotsBaromVisibWave heightAir tempDewpointWater temp
2017-Sep-21 06:51N 54°21' E 009°47'3 8.0
2017-Sep-21 06:30N 54°20' E 009°43'3 5.2
2017-Sep-21 05:58N 54°18' E 009°40'0 0.0
2017-Sep-21 05:28N 54°18' E 009°40'0 0.0
2017-Sep-21 04:58N 54°18' E 009°40'0 0.0
2017-Sep-21 04:28N 54°18' E 009°40'0 0.0
2017-Sep-21 03:58N 54°18' E 009°40'0 0.0
2017-Sep-21 03:28N 54°18' E 009°40'0 0.0
2017-Sep-21 02:58N 54°18' E 009°40'0 0.0
2017-Sep-21 02:28N 54°18' E 009°40'0 0.0
2017-Sep-21 01:58N 54°18' E 009°40'0 0.0
2017-Sep-21 01:25N 54°18' E 009°40'0 0.0
2017-Sep-21 00:58N 54°18' E 009°40'0 0.0
2017-Sep-21 00:28N 54°18' E 009°40'0 0.0
2017-Sep-20 23:58N 54°18' E 009°40'0 0.0
2017-Sep-20 23:25N 54°18' E 009°40'0 0.0
2017-Sep-20 22:58N 54°18' E 009°40'0 0.0
2017-Sep-20 22:28N 54°18' E 009°40'0 0.0
2017-Sep-20 21:58N 54°18' E 009°40'0 0.0
2017-Sep-20 21:28N 54°18' E 009°40'0 0.0
2017-Sep-20 20:58N 54°18' E 009°40'0 0.0
2017-Sep-20 20:25N 54°18' E 009°40'0 0.0
2017-Sep-20 19:58N 54°18' E 009°40'0 0.0
2017-Sep-20 19:28N 54°18' E 009°40'0 0.0
2017-Sep-20 18:58N 54°18' E 009°40'0 0.0
2017-Sep-20 18:22N 54°18' E 009°40'0 0.0
2017-Sep-20 17:58N 54°18' E 009°40'0 0.0
2017-Sep-20 17:25N 54°18' E 009°40'0 0.0
2017-Sep-20 16:58N 54°18' E 009°40'0 0.0
2017-Sep-20 16:28N 54°18' E 009°40'0 0.0
2017-Sep-20 15:58N 54°18' E 009°40'0 0.0
2017-Sep-20 15:28N 54°18' E 009°40'2 4.5
2017-Sep-20 15:00N 54°16' E 009°38'7 7.5
2017-Sep-20 14:00N 54°11' E 009°29'4 7.9
2017-Sep-20 13:30N 54°09' E 009°23'4 7.3
2017-Sep-20 13:00N 54°06' E 009°20'4 7.9
2017-Sep-20 12:30N 54°02' E 009°18'4 8.0
2017-Sep-20 12:00N 53°58' E 009°16'4 7.9
2017-Sep-20 11:30N 53°55' E 009°12'2 4.7
2017-Sep-20 11:00N 53°54' E 009°09'0 0.3
2017-Sep-20 10:30N 53°54' E 009°09'4 8.1
2017-Sep-20 10:01N 53°52' E 009°02'510.6
2017-Sep-20 09:30N 53°50' E 008°54'5 9.8
2017-Sep-20 09:00N 53°51' E 008°45'5 9.6
2017-Sep-20 08:30N 53°55' E 008°40'5 9.9
2017-Sep-20 08:00N 53°59' E 008°35'5 9.4
2017-Sep-20 07:27N 54°02' E 008°29'3 4.9
2017-Sep-20 06:47N 54°06' E 008°28'3 6.3
2017-Sep-20 06:20N 54°06' E 008°33'3 7.8
2017-Sep-20 05:55N 54°07' E 008°39'3 8.1
2017-Sep-20 05:30N 54°08' E 008°44'4 7.5
2017-Sep-20 04:58N 54°07' E 008°51'1 0.1
2017-Sep-19 20:38N 54°08' E 008°52'17 2.1
2017-Sep-19 12:39N 54°06' E 008°23'16 0.6
2017-Sep-18 08:05N 54°07' E 008°51'0 2.9
2017-Sep-18 07:57N 54°07' E 008°52'0 0.4
2017-Sep-18 07:26N 54°08' E 008°52'14 0.7
2017-Sep-17 11:06N 54°03' E 008°29'1 9.5
2017-Sep-17 11:00N 54°02' E 008°30'5 9.3
2017-Sep-17 10:31N 53°59' E 008°35'4 7.3
2017-Sep-17 10:00N 53°56' E 008°40'3 6.0
2017-Sep-17 09:29N 53°53' E 008°43'2 3.1
2017-Sep-17 09:00N 53°52' E 008°43'0 0.7
2017-Sep-17 08:30N 53°52' E 008°43'0 0.0
2017-Sep-17 08:00N 53°52' E 008°43'0 0.0
2017-Sep-17 07:30N 53°52' E 008°43'0 0.0
2017-Sep-17 07:01N 53°52' E 008°43'0 0.0
2017-Sep-17 06:30N 53°52' E 008°43'0 0.0
2017-Sep-17 06:00N 53°52' E 008°43'0 0.0
2017-Sep-17 05:31N 53°52' E 008°43'0 0.0
2017-Sep-17 05:00N 53°52' E 008°43'0 0.0
2017-Sep-17 04:30N 53°52' E 008°43'0 0.0
2017-Sep-17 04:00N 53°52' E 008°43'0 0.0
2017-Sep-17 03:30N 53°52' E 008°43'0 0.0
2017-Sep-17 03:00N 53°52' E 008°43'0 0.0
2017-Sep-17 02:30N 53°52' E 008°43'0 0.0
2017-Sep-17 02:01N 53°52' E 008°43'0 0.0
2017-Sep-17 01:31N 53°52' E 008°43'0 0.0
2017-Sep-17 01:00N 53°52' E 008°43'0 0.0
2017-Sep-17 00:31N 53°52' E 008°43'0 0.0
2017-Sep-17 00:00N 53°52' E 008°43'0 0.0
2017-Sep-16 23:31N 53°52' E 008°43'0 0.0
2017-Sep-16 23:00N 53°52' E 008°43'0 0.0
2017-Sep-16 22:31N 53°52' E 008°43'0 0.0
2017-Sep-16 22:00N 53°52' E 008°43'0 0.0
2017-Sep-16 21:30N 53°52' E 008°43'0 0.0
2017-Sep-16 21:01N 53°52' E 008°43'0 0.0
2017-Sep-16 20:30N 53°52' E 008°43'0 0.0
2017-Sep-16 20:01N 53°52' E 008°43'0 0.0
2017-Sep-16 19:31N 53°52' E 008°43'0 0.0
2017-Sep-16 19:00N 53°52' E 008°43'0 0.0
2017-Sep-16 18:31N 53°52' E 008°43'0 0.0
2017-Sep-16 18:00N 53°52' E 008°43'0 0.0
2017-Sep-16 17:30N 53°52' E 008°43'0 0.0
2017-Sep-16 17:00N 53°52' E 008°43'0 0.0
2017-Sep-16 16:31N 53°52' E 008°43'0 0.0
2017-Sep-16 16:01N 53°52' E 008°43'0 0.0
2017-Sep-16 15:30N 53°52' E 008°43'0 0.0
2017-Sep-16 15:00N 53°52' E 008°43'0 0.0
2017-Sep-16 14:31N 53°52' E 008°43'0 0.0
2017-Sep-16 14:00N 53°52' E 008°43'0 0.0
2017-Sep-16 13:31N 53°52' E 008°43'0 0.0
2017-Sep-16 13:01N 53°52' E 008°43'0 0.0
2017-Sep-16 12:30N 53°52' E 008°43'0 0.0
2017-Sep-16 12:00N 53°52' E 008°43'0 0.0
2017-Sep-16 11:30N 53°52' E 008°43'0 0.0
2017-Sep-16 11:00N 53°52' E 008°43'0 0.0
2017-Sep-16 10:30N 53°52' E 008°43'0 0.0
2017-Sep-16 10:00N 53°52' E 008°43'0 0.0
2017-Sep-16 09:30N 53°52' E 008°43'0 0.0
2017-Sep-16 09:00N 53°52' E 008°43'0 0.0
2017-Sep-16 08:30N 53°52' E 008°43'0 0.0
2017-Sep-16 07:59N 53°52' E 008°43'0 0.0
2017-Sep-16 07:24N 53°52' E 008°43'0 0.0
2017-Sep-16 05:45N 53°52' E 008°43'0 0.0
2017-Sep-16 05:28N 53°52' E 008°43'0 0.0
2017-Sep-16 04:56N 53°52' E 008°43'0 0.0
2017-Sep-16 04:20N 53°52' E 008°43'0 0.0
2017-Sep-16 03:51N 53°52' E 008°43'0 0.0
2017-Sep-16 03:25N 53°52' E 008°43'0 0.0
2017-Sep-16 02:56N 53°52' E 008°43'0 0.0
2017-Sep-16 02:29N 53°52' E 008°43'0 0.0
2017-Sep-16 01:58N 53°52' E 008°43'0 0.0
2017-Sep-16 01:30N 53°52' E 008°43'0 0.0
2017-Sep-16 00:59N 53°52' E 008°43'0 0.0
2017-Sep-16 00:24N 53°52' E 008°43'0 0.0
2017-Sep-16 00:00N 53°52' E 008°43'0 0.0
2017-Sep-15 23:30N 53°52' E 008°43'0 0.0
2017-Sep-15 22:59N 53°52' E 008°43'0 0.0
2017-Sep-15 22:30N 53°52' E 008°43'0 0.0
2017-Sep-15 22:00N 53°52' E 008°43'0 0.0
2017-Sep-15 21:30N 53°52' E 008°43'0 0.0
2017-Sep-15 21:00N 53°52' E 008°43'0 0.0
2017-Sep-15 20:30N 53°52' E 008°43'0 0.0
2017-Sep-15 20:00N 53°52' E 008°43'0 0.0
2017-Sep-15 19:30N 53°52' E 008°43'0 0.0
2017-Sep-15 18:59N 53°52' E 008°43'0 0.0
2017-Sep-15 18:30N 53°52' E 008°43'0 0.0
2017-Sep-15 17:59N 53°52' E 008°43'0 0.0
2017-Sep-15 17:30N 53°52' E 008°43'0 0.0
2017-Sep-15 17:00N 53°52' E 008°43'0 0.0
2017-Sep-15 16:29N 53°52' E 008°43'0 0.0
2017-Sep-15 15:51N 53°52' E 008°43'0 0.0
2017-Sep-15 15:25N 53°52' E 008°43'0 0.0
2017-Sep-15 14:59N 53°52' E 008°43'0 0.0
2017-Sep-15 14:30N 53°52' E 008°43'0 0.0
2017-Sep-15 13:58N 53°52' E 008°43'0 0.0
2017-Sep-15 13:30N 53°52' E 008°43'0 0.0
2017-Sep-15 13:00N 53°52' E 008°43'0 0.0
2017-Sep-15 12:30N 53°52' E 008°43'0 0.0
2017-Sep-15 12:00N 53°52' E 008°43'0 0.0
2017-Sep-15 11:29N 53°52' E 008°43'0 0.0
2017-Sep-15 11:00N 53°52' E 008°43'0 0.0
2017-Sep-15 10:29N 53°52' E 008°43'0 0.0
2017-Sep-15 10:00N 53°52' E 008°43'0 0.0
2017-Sep-15 09:31N 53°52' E 008°43'0 0.0
2017-Sep-15 09:00N 53°52' E 008°43'0 0.0
2017-Sep-15 08:30N 53°52' E 008°43'0 0.0
2017-Sep-15 08:01N 53°52' E 008°43'0 0.0
2017-Sep-15 07:30N 53°52' E 008°43'0 0.0
2017-Sep-15 06:59N 53°52' E 008°43'0 0.0
2017-Sep-15 06:30N 53°52' E 008°43'0 0.0
2017-Sep-15 06:00N 53°52' E 008°43'0 0.0
2017-Sep-15 05:30N 53°52' E 008°43'0 0.0
2017-Sep-15 05:00N 53°52' E 008°43'0 0.0
2017-Sep-15 04:30N 53°52' E 008°43'0 0.0
2017-Sep-15 04:01N 53°52' E 008°43'0 0.0
2017-Sep-15 03:30N 53°52' E 008°43'0 0.0
2017-Sep-15 03:00N 53°52' E 008°43'0 0.0
2017-Sep-15 02:30N 53°52' E 008°43'0 0.0
2017-Sep-15 02:01N 53°52' E 008°43'0 0.0
2017-Sep-15 01:28N 53°52' E 008°43'0 0.0
2017-Sep-15 01:00N 53°52' E 008°43'0 0.0
2017-Sep-15 00:30N 53°52' E 008°43'0 0.0
2017-Sep-15 00:01N 53°52' E 008°43'0 0.0
2017-Sep-14 23:30N 53°52' E 008°43'0 0.0
2017-Sep-14 23:01N 53°52' E 008°43'0 0.0
2017-Sep-14 22:30N 53°52' E 008°43'0 0.0
2017-Sep-14 22:00N 53°52' E 008°43'0 0.8
2017-Sep-14 21:30N 53°52' E 008°43'3 6.2
2017-Sep-14 21:00N 53°51' E 008°47'5 9.3
2017-Sep-14 20:30N 53°51' E 008°55'4 8.5
2017-Sep-14 20:00N 53°52' E 009°02'4 7.8
2017-Sep-14 19:30N 53°53' E 009°08'1 2.1
2017-Sep-14 19:00N 53°54' E 009°10'4 7.6
2017-Sep-14 18:30N 53°57' E 009°14'4 8.4
2017-Sep-14 17:59N 54°01' E 009°18'4 8.3
2017-Sep-14 17:30N 54°04' E 009°19'  
Track history (hours):
 
Tides and Currents Weather Stations Pressure Air Temp Water Temp Dewpoint Dewpoint Depression Visibility Wind Speed Wind Dir Waves Ship Positions

Oceanographic research ship Schall (Germany)

Detailed information on ship capabilities available from University of Delaware's Ocean Information Center.

Last reported at 2017-Sep-21 06:51 UTC. Time now 2017-Sep-24 07:00 UTC.
Position N 54°21' E 009°47'.

Length 50 m; draft 2 m.

Type: Ship. MMSI: 211236290.

Date/timePositionNaut miles runAvg speedWind from/ knotsBaromVisibWave heightAir tempDewpointWater temp
2017-Sep-21 06:51N 54°21' E 009°47'3 8.0
2017-Sep-21 06:30N 54°20' E 009°43'3 5.2
2017-Sep-21 05:58N 54°18' E 009°40'0 0.0
2017-Sep-21 05:28N 54°18' E 009°40'0 0.0
2017-Sep-21 04:58N 54°18' E 009°40'0 0.0
2017-Sep-21 04:28N 54°18' E 009°40'0 0.0
2017-Sep-21 03:58N 54°18' E 009°40'0 0.0
2017-Sep-21 03:28N 54°18' E 009°40'0 0.0
2017-Sep-21 02:58N 54°18' E 009°40'0 0.0
2017-Sep-21 02:28N 54°18' E 009°40'0 0.0
2017-Sep-21 01:58N 54°18' E 009°40'0 0.0
2017-Sep-21 01:25N 54°18' E 009°40'0 0.0
2017-Sep-21 00:58N 54°18' E 009°40'0 0.0
2017-Sep-21 00:28N 54°18' E 009°40'0 0.0
2017-Sep-20 23:58N 54°18' E 009°40'0 0.0
2017-Sep-20 23:25N 54°18' E 009°40'0 0.0
2017-Sep-20 22:58N 54°18' E 009°40'0 0.0
2017-Sep-20 22:28N 54°18' E 009°40'0 0.0
2017-Sep-20 21:58N 54°18' E 009°40'0 0.0
2017-Sep-20 21:28N 54°18' E 009°40'0 0.0
2017-Sep-20 20:58N 54°18' E 009°40'0 0.0
2017-Sep-20 20:25N 54°18' E 009°40'0 0.0
2017-Sep-20 19:58N 54°18' E 009°40'0 0.0
2017-Sep-20 19:28N 54°18' E 009°40'0 0.0
2017-Sep-20 18:58N 54°18' E 009°40'0 0.0
2017-Sep-20 18:22N 54°18' E 009°40'0 0.0
2017-Sep-20 17:58N 54°18' E 009°40'0 0.0
2017-Sep-20 17:25N 54°18' E 009°40'0 0.0
2017-Sep-20 16:58N 54°18' E 009°40'0 0.0
2017-Sep-20 16:28N 54°18' E 009°40'0 0.0
2017-Sep-20 15:58N 54°18' E 009°40'0 0.0
2017-Sep-20 15:28N 54°18' E 009°40'2 4.5
2017-Sep-20 15:00N 54°16' E 009°38'7 7.5
2017-Sep-20 14:00N 54°11' E 009°29'4 7.9
2017-Sep-20 13:30N 54°09' E 009°23'4 7.3
2017-Sep-20 13:00N 54°06' E 009°20'4 7.9
2017-Sep-20 12:30N 54°02' E 009°18'4 8.0
2017-Sep-20 12:00N 53°58' E 009°16'4 7.9
2017-Sep-20 11:30N 53°55' E 009°12'2 4.7
2017-Sep-20 11:00N 53°54' E 009°09'0 0.3
2017-Sep-20 10:30N 53°54' E 009°09'4 8.1
2017-Sep-20 10:01N 53°52' E 009°02'510.6
2017-Sep-20 09:30N 53°50' E 008°54'5 9.8
2017-Sep-20 09:00N 53°51' E 008°45'5 9.6
2017-Sep-20 08:30N 53°55' E 008°40'5 9.9
2017-Sep-20 08:00N 53°59' E 008°35'5 9.4
2017-Sep-20 07:27N 54°02' E 008°29'3 4.9
2017-Sep-20 06:47N 54°06' E 008°28'3 6.3
2017-Sep-20 06:20N 54°06' E 008°33'3 7.8
2017-Sep-20 05:55N 54°07' E 008°39'3 8.1
2017-Sep-20 05:30N 54°08' E 008°44'4 7.5
2017-Sep-20 04:58N 54°07' E 008°51'1 0.1
2017-Sep-19 20:38N 54°08' E 008°52'17 2.1
2017-Sep-19 12:39N 54°06' E 008°23'16 0.6
2017-Sep-18 08:05N 54°07' E 008°51'0 2.9
2017-Sep-18 07:57N 54°07' E 008°52'0 0.4
2017-Sep-18 07:26N 54°08' E 008°52'14 0.7
2017-Sep-17 11:06N 54°03' E 008°29'1 9.5
2017-Sep-17 11:00N 54°02' E 008°30'5 9.3
2017-Sep-17 10:31N 53°59' E 008°35'4 7.3
2017-Sep-17 10:00N 53°56' E 008°40'3 6.0
2017-Sep-17 09:29N 53°53' E 008°43'2 3.1
2017-Sep-17 09:00N 53°52' E 008°43'0 0.7
2017-Sep-17 08:30N 53°52' E 008°43'0 0.0
2017-Sep-17 08:00N 53°52' E 008°43'0 0.0
2017-Sep-17 07:30N 53°52' E 008°43'0 0.0
2017-Sep-17 07:01N 53°52' E 008°43'0 0.0
2017-Sep-17 06:30N 53°52' E 008°43'0 0.0
2017-Sep-17 06:00N 53°52' E 008°43'0 0.0
2017-Sep-17 05:31N 53°52' E 008°43'0 0.0
2017-Sep-17 05:00N 53°52' E 008°43'0 0.0
2017-Sep-17 04:30N 53°52' E 008°43'0 0.0
2017-Sep-17 04:00N 53°52' E 008°43'0 0.0
2017-Sep-17 03:30N 53°52' E 008°43'0 0.0
2017-Sep-17 03:00N 53°52' E 008°43'0 0.0
2017-Sep-17 02:30N 53°52' E 008°43'0 0.0
2017-Sep-17 02:01N 53°52' E 008°43'0 0.0
2017-Sep-17 01:31N 53°52' E 008°43'0 0.0
2017-Sep-17 01:00N 53°52' E 008°43'0 0.0
2017-Sep-17 00:31N 53°52' E 008°43'0 0.0
2017-Sep-17 00:00N 53°52' E 008°43'0 0.0
2017-Sep-16 23:31N 53°52' E 008°43'0 0.0
2017-Sep-16 23:00N 53°52' E 008°43'0 0.0
2017-Sep-16 22:31N 53°52' E 008°43'0 0.0
2017-Sep-16 22:00N 53°52' E 008°43'0 0.0
2017-Sep-16 21:30N 53°52' E 008°43'0 0.0
2017-Sep-16 21:01N 53°52' E 008°43'0 0.0
2017-Sep-16 20:30N 53°52' E 008°43'0 0.0
2017-Sep-16 20:01N 53°52' E 008°43'0 0.0
2017-Sep-16 19:31N 53°52' E 008°43'0 0.0
2017-Sep-16 19:00N 53°52' E 008°43'0 0.0
2017-Sep-16 18:31N 53°52' E 008°43'0 0.0
2017-Sep-16 18:00N 53°52' E 008°43'0 0.0
2017-Sep-16 17:30N 53°52' E 008°43'0 0.0
2017-Sep-16 17:00N 53°52' E 008°43'0 0.0
2017-Sep-16 16:31N 53°52' E 008°43'0 0.0
2017-Sep-16 16:01N 53°52' E 008°43'0 0.0
2017-Sep-16 15:30N 53°52' E 008°43'0 0.0
2017-Sep-16 15:00N 53°52' E 008°43'0 0.0
2017-Sep-16 14:31N 53°52' E 008°43'0 0.0
2017-Sep-16 14:00N 53°52' E 008°43'0 0.0
2017-Sep-16 13:31N 53°52' E 008°43'0 0.0
2017-Sep-16 13:01N 53°52' E 008°43'0 0.0
2017-Sep-16 12:30N 53°52' E 008°43'0 0.0
2017-Sep-16 12:00N 53°52' E 008°43'0 0.0
2017-Sep-16 11:30N 53°52' E 008°43'0 0.0
2017-Sep-16 11:00N 53°52' E 008°43'0 0.0
2017-Sep-16 10:30N 53°52' E 008°43'0 0.0
2017-Sep-16 10:00N 53°52' E 008°43'0 0.0
2017-Sep-16 09:30N 53°52' E 008°43'0 0.0
2017-Sep-16 09:00N 53°52' E 008°43'0 0.0
2017-Sep-16 08:30N 53°52' E 008°43'0 0.0
2017-Sep-16 07:59N 53°52' E 008°43'0 0.0
2017-Sep-16 07:24N 53°52' E 008°43'0 0.0
2017-Sep-16 05:45N 53°52' E 008°43'0 0.0
2017-Sep-16 05:28N 53°52' E 008°43'0 0.0
2017-Sep-16 04:56N 53°52' E 008°43'0 0.0
2017-Sep-16 04:20N 53°52' E 008°43'0 0.0
2017-Sep-16 03:51N 53°52' E 008°43'0 0.0
2017-Sep-16 03:25N 53°52' E 008°43'0 0.0
2017-Sep-16 02:56N 53°52' E 008°43'0 0.0
2017-Sep-16 02:29N 53°52' E 008°43'0 0.0
2017-Sep-16 01:58N 53°52' E 008°43'0 0.0
2017-Sep-16 01:30N 53°52' E 008°43'0 0.0
2017-Sep-16 00:59N 53°52' E 008°43'0 0.0
2017-Sep-16 00:24N 53°52' E 008°43'0 0.0
2017-Sep-16 00:00N 53°52' E 008°43'0 0.0
2017-Sep-15 23:30N 53°52' E 008°43'0 0.0
2017-Sep-15 22:59N 53°52' E 008°43'0 0.0
2017-Sep-15 22:30N 53°52' E 008°43'0 0.0
2017-Sep-15 22:00N 53°52' E 008°43'0 0.0
2017-Sep-15 21:30N 53°52' E 008°43'0 0.0
2017-Sep-15 21:00N 53°52' E 008°43'0 0.0
2017-Sep-15 20:30N 53°52' E 008°43'0 0.0
2017-Sep-15 20:00N 53°52' E 008°43'0 0.0
2017-Sep-15 19:30N 53°52' E 008°43'0 0.0
2017-Sep-15 18:59N 53°52' E 008°43'0 0.0
2017-Sep-15 18:30N 53°52' E 008°43'0 0.0
2017-Sep-15 17:59N 53°52' E 008°43'0 0.0
2017-Sep-15 17:30N 53°52' E 008°43'0 0.0
2017-Sep-15 17:00N 53°52' E 008°43'0 0.0
2017-Sep-15 16:29N 53°52' E 008°43'0 0.0
2017-Sep-15 15:51N 53°52' E 008°43'0 0.0
2017-Sep-15 15:25N 53°52' E 008°43'0 0.0
2017-Sep-15 14:59N 53°52' E 008°43'0 0.0
2017-Sep-15 14:30N 53°52' E 008°43'0 0.0
2017-Sep-15 13:58N 53°52' E 008°43'0 0.0
2017-Sep-15 13:30N 53°52' E 008°43'0 0.0
2017-Sep-15 13:00N 53°52' E 008°43'0 0.0
2017-Sep-15 12:30N 53°52' E 008°43'0 0.0
2017-Sep-15 12:00N 53°52' E 008°43'0 0.0
2017-Sep-15 11:29N 53°52' E 008°43'0 0.0
2017-Sep-15 11:00N 53°52' E 008°43'0 0.0
2017-Sep-15 10:29N 53°52' E 008°43'0 0.0
2017-Sep-15 10:00N 53°52' E 008°43'0 0.0
2017-Sep-15 09:31N 53°52' E 008°43'0 0.0
2017-Sep-15 09:00N 53°52' E 008°43'0 0.0
2017-Sep-15 08:30N 53°52' E 008°43'0 0.0
2017-Sep-15 08:01N 53°52' E 008°43'0 0.0
2017-Sep-15 07:30N 53°52' E 008°43'0 0.0
2017-Sep-15 06:59N 53°52' E 008°43'0 0.0
2017-Sep-15 06:30N 53°52' E 008°43'0 0.0
2017-Sep-15 06:00N 53°52' E 008°43'0 0.0
2017-Sep-15 05:30N 53°52' E 008°43'0 0.0
2017-Sep-15 05:00N 53°52' E 008°43'0 0.0
2017-Sep-15 04:30N 53°52' E 008°43'0 0.0
2017-Sep-15 04:01N 53°52' E 008°43'0 0.0
2017-Sep-15 03:30N 53°52' E 008°43'0 0.0
2017-Sep-15 03:00N 53°52' E 008°43'0 0.0
2017-Sep-15 02:30N 53°52' E 008°43'0 0.0
2017-Sep-15 02:01N 53°52' E 008°43'0 0.0
2017-Sep-15 01:28N 53°52' E 008°43'0 0.0
2017-Sep-15 01:00N 53°52' E 008°43'0 0.0
2017-Sep-15 00:30N 53°52' E 008°43'0 0.0
2017-Sep-15 00:01N 53°52' E 008°43'0 0.0
2017-Sep-14 23:30N 53°52' E 008°43'0 0.0
2017-Sep-14 23:01N 53°52' E 008°43'0 0.0
2017-Sep-14 22:30N 53°52' E 008°43'0 0.0
2017-Sep-14 22:00N 53°52' E 008°43'0 0.8
2017-Sep-14 21:30N 53°52' E 008°43'3 6.2
2017-Sep-14 21:00N 53°51' E 008°47'5 9.3
2017-Sep-14 20:30N 53°51' E 008°55'4 8.5
2017-Sep-14 20:00N 53°52' E 009°02'4 7.8
2017-Sep-14 19:30N 53°53' E 009°08'1 2.1
2017-Sep-14 19:00N 53°54' E 009°10'4 7.6
2017-Sep-14 18:30N 53°57' E 009°14'4 8.4
2017-Sep-14 17:59N 54°01' E 009°18'4 8.3
2017-Sep-14 17:30N 54°04' E 009°19'  

Dump ship's entire track history